Time;durP1;ratioP1;P1;durP2;ratioP2;P2;SDS_P1;SDS_P2;PMS_P1;PMS_P2;Temp;Humidity;BMP_temperature;BMP_pressure;BME280_temperature;BME280_humidity;BME280_pressure;Samples;Min_cycle;Max_cycle;Signal;HPM_P1;HPM_P2
2022/05/24 00:02:52;;;;;;;10.48;3.42;;;19.30;99.90;;;;;;5032578;28;20057;-69
2022/05/24 00:05:56;;;;;;;7.25;4.03;;;19.20;99.90;;;;;;5032195;28;20393;-69
2022/05/24 00:09:00;;;;;;;8.18;4.32;;;19.00;99.90;;;;;;5031911;28;20045;-69
2022/05/24 00:12:05;;;;;;;6.88;3.95;;;18.90;99.90;;;;;;5032384;28;20060;-69
2022/05/24 00:15:29;;;;;;;8.15;4.38;;;18.80;99.90;;;;;;5031822;28;20050;-69
2022/05/24 00:18:34;;;;;;;5.50;3.88;;;18.70;99.90;;;;;;5031435;28;20047;-69
2022/05/24 00:21:38;;;;;;;8.63;4.18;;;18.70;99.90;;;;;;5031899;28;20052;-69
2022/05/24 00:24:42;;;;;;;7.88;4.22;;;18.70;99.90;;;;;;5030514;28;20044;-69
2022/05/24 00:27:47;;;;;;;7.47;4.00;;;18.60;99.90;;;;;;5031477;28;20044;-69
2022/05/24 00:30:51;;;;;;;8.63;4.53;;;18.50;99.90;;;;;;5031837;28;20043;-69
2022/05/24 00:33:55;;;;;;;7.55;4.05;;;18.50;99.90;;;;;;5031466;28;20048;-69
2022/05/24 00:36:59;;;;;;;8.20;4.20;;;18.50;99.90;;;;;;5031090;28;20052;-69
2022/05/24 00:40:05;;;;;;;6.60;4.25;;;18.40;99.90;;;;;;5031357;28;20057;-69
2022/05/24 00:43:26;;;;;;;6.45;4.05;;;18.30;99.90;;;;;;5031035;28;20045;-70
2022/05/24 00:46:56;;;;;;;10.02;3.92;;;18.20;99.90;;;;;;5031257;28;20338;-70
2022/05/24 00:50:11;;;;;;;11.05;5.72;;;18.20;99.90;;;;;;5031242;28;20084;-70
2022/05/24 00:53:21;;;;;;;7.80;4.28;;;18.20;99.90;;;;;;5031412;28;20044;-69
2022/05/24 00:56:47;;;;;;;9.18;4.28;;;18.10;99.90;;;;;;5030944;28;20056;-69
2022/05/24 00:59:53;;;;;;;6.50;4.07;;;18.00;99.90;;;;;;5031266;28;20527;-69
2022/05/24 01:02:57;;;;;;;8.80;4.53;;;17.90;99.90;;;;;;5030944;28;20033;-69
2022/05/24 01:06:02;;;;;;;9.13;4.05;;;17.80;99.90;;;;;;5031131;28;20052;-69
2022/05/24 01:09:12;;;;;;;8.20;4.38;;;17.80;99.90;;;;;;5031155;28;20049;-69
2022/05/24 01:12:25;;;;;;;6.20;4.00;;;17.80;99.90;;;;;;5031383;28;20052;-70
2022/05/24 01:15:33;;;;;;;6.68;3.90;;;17.80;99.90;;;;;;5030956;28;20053;-69
2022/05/24 01:18:38;;;;;;;8.75;3.75;;;17.80;99.90;;;;;;5030772;28;20396;-70
2022/05/24 01:21:43;;;;;;;6.68;3.65;;;17.80;99.90;;;;;;5030955;28;20048;-70
2022/05/24 01:25:10;;;;;;;7.20;2.88;;;17.80;99.90;;;;;;5030903;28;20049;-69
2022/05/24 01:28:25;;;;;;;6.10;3.40;;;17.80;99.90;;;;;;5031163;28;20044;-70
2022/05/24 01:38:16;;;;;;;;;;;17.90;99.90;;;;;;5034912;28;20048;-69
2022/05/24 01:41:29;;;;;;;3.78;2.40;;;18.00;99.90;;;;;;5034988;28;19916;-69
2022/05/24 01:44:47;;;;;;;7.40;2.88;;;18.00;99.90;;;;;;5034653;28;20045;-70
2022/05/24 01:47:55;;;;;;;10.27;2.95;;;18.10;99.90;;;;;;5034817;28;20044;-69
2022/05/24 01:51:02;;;;;;;5.10;2.75;;;18.10;99.90;;;;;;5034586;28;20052;-69
2022/05/24 01:54:11;;;;;;;5.97;2.15;;;18.10;99.90;;;;;;5035214;28;20380;-69
2022/05/24 01:57:20;;;;;;;7.20;3.13;;;18.20;99.90;;;;;;5034059;28;20392;-69
2022/05/24 02:00:25;;;;;;;5.40;2.40;;;18.30;99.90;;;;;;5034365;28;20049;-69
2022/05/24 02:03:28;;;;;;;7.25;2.40;;;18.10;99.90;;;;;;5034409;28;20049;-69
2022/05/24 02:06:34;;;;;;;6.88;2.47;;;18.00;99.90;;;;;;5034079;28;20044;-70
2022/05/24 02:09:41;;;;;;;7.50;2.40;;;18.00;99.90;;;;;;5034003;28;20044;-69
2022/05/24 02:12:49;;;;;;;6.50;2.92;;;18.00;99.90;;;;;;5034248;28;20388;-69
2022/05/24 02:15:58;;;;;;;8.32;3.40;;;17.70;99.90;;;;;;5033633;28;20063;-70
2022/05/24 02:19:03;;;;;;;8.82;3.70;;;17.60;99.90;;;;;;5034121;28;20472;-70
2022/05/24 02:22:14;;;;;;;6.88;2.70;;;17.40;99.90;;;;;;5034250;28;20048;-69
2022/05/24 02:25:37;;;;;;;8.45;3.60;;;17.40;99.90;;;;;;5034326;28;20044;-69
2022/05/24 02:28:41;;;;;;;10.38;3.78;;;17.40;99.90;;;;;;5034206;28;20052;-69
2022/05/24 02:31:46;;;;;;;9.32;4.03;;;17.20;99.90;;;;;;5033890;28;20121;-69
2022/05/24 02:34:50;;;;;;;10.98;3.88;;;17.10;99.90;;;;;;5033879;28;20041;-69
2022/05/24 02:37:54;;;;;;;8.10;3.90;;;17.00;99.90;;;;;;5033515;28;20503;-69
2022/05/24 02:44:21;;;;;;;7.57;4.90;;;16.90;99.90;;;;;;5033904;28;20408;-69
2022/05/24 02:47:25;;;;;;;8.27;3.95;;;16.80;99.90;;;;;;5032385;28;20060;-69
2022/05/24 02:50:30;;;;;;;7.10;3.97;;;16.70;99.90;;;;;;5033857;28;20417;-69
2022/05/24 02:53:35;;;;;;;6.43;4.35;;;16.70;99.90;;;;;;5033607;28;20051;-69
2022/05/24 02:56:40;;;;;;;7.50;4.50;;;16.60;99.90;;;;;;5033482;28;20049;-70
2022/05/24 02:59:44;;;;;;;6.43;4.43;;;16.60;99.90;;;;;;5033644;28;20053;-69
2022/05/24 03:02:49;;;;;;;5.18;3.60;;;16.70;99.90;;;;;;5033638;28;20048;-70
2022/05/24 03:06:01;;;;;;;9.20;3.50;;;16.70;99.90;;;;;;5033091;28;20512;-69
2022/05/24 03:15:49;;;;;;;7.10;2.92;;;17.00;99.90;;;;;;5033005;28;19913;-69
2022/05/24 03:18:54;;;;;;;4.18;2.63;;;17.00;99.90;;;;;;5032611;28;20396;-69
2022/05/24 03:21:58;;;;;;;6.13;3.15;;;17.10;99.90;;;;;;5032386;28;20499;-69
2022/05/24 03:25:03;;;;;;;8.95;3.78;;;17.00;99.90;;;;;;5032926;28;20392;-69
2022/05/24 03:28:08;;;;;;;7.18;3.88;;;16.90;99.90;;;;;;5032549;28;20052;-69
2022/05/24 03:31:12;;;;;;;7.95;4.53;;;16.70;99.90;;;;;;5032979;28;20504;-69
2022/05/24 03:34:16;;;;;;;10.57;4.65;;;16.60;99.90;;;;;;5032405;28;20511;-69
2022/05/24 03:37:21;;;;;;;12.45;4.68;;;16.50;99.90;;;;;;5031927;28;20044;-69
2022/05/24 03:40:25;;;;;;;11.45;4.72;;;16.40;99.90;;;;;;5032579;28;20048;-69
2022/05/24 03:43:29;;;;;;;15.45;5.15;;;16.30;99.90;;;;;;5032485;28;20044;-69
2022/05/24 03:46:33;;;;;;;8.95;5.18;;;16.10;99.90;;;;;;5032119;28;20049;-69
2022/05/24 03:49:37;;;;;;;7.85;4.80;;;16.00;99.90;;;;;;5032450;28;20040;-69
2022/05/24 03:52:41;;;;;;;11.10;4.75;;;16.10;99.90;;;;;;5032067;28;20037;-69
2022/05/24 03:55:45;;;;;;;9.25;4.78;;;16.10;99.90;;;;;;5031839;28;20416;-69
2022/05/24 03:58:49;;;;;;;12.07;4.65;;;16.10;99.90;;;;;;5032324;28;20503;-69
2022/05/24 04:01:53;;;;;;;10.52;4.32;;;16.10;99.90;;;;;;5032386;28;20041;-69
2022/05/24 04:04:57;;;;;;;8.70;4.60;;;16.10;99.90;;;;;;5032361;28;20048;-69
2022/05/24 04:08:02;;;;;;;9.95;5.15;;;16.10;99.90;;;;;;5031654;28;20056;-69
2022/05/24 04:11:09;;;;;;;7.97;4.50;;;16.20;99.90;;;;;;5031645;28;20125;-69
2022/05/24 04:14:13;;;;;;;11.48;4.80;;;16.30;99.90;;;;;;5031852;28;20064;-69
2022/05/24 04:17:17;;;;;;;9.13;4.45;;;16.40;99.90;;;;;;5031425;28;20048;-69
2022/05/24 04:20:24;;;;;;;6.97;4.18;;;16.40;99.90;;;;;;5031655;28;20535;-69
2022/05/24 04:23:29;;;;;;;9.02;4.88;;;16.40;99.90;;;;;;5031996;28;20223;-69
2022/05/24 04:26:33;;;;;;;8.65;4.03;;;16.40;99.90;;;;;;5031553;28;20396;-69
2022/05/24 04:29:40;;;;;;;8.93;3.92;;;16.30;99.90;;;;;;5031848;28;20044;-69
2022/05/24 04:32:44;;;;;;;6.53;3.85;;;16.50;99.90;;;;;;5031754;28;20052;-69
2022/05/24 04:35:48;;;;;;;5.38;3.50;;;16.60;99.90;;;;;;5031608;28;20048;-69
2022/05/24 04:38:52;;;;;;;10.35;4.00;;;17.40;99.90;;;;;;5031159;28;20045;-70
2022/05/24 04:45:18;;;;;;;6.20;3.28;;;19.10;99.90;;;;;;5031459;28;20048;-70
2022/05/24 04:48:23;;;;;;;4.85;3.50;;;20.00;99.90;;;;;;5031245;28;20049;-70
2022/05/24 04:51:27;;;;;;;5.63;3.95;;;20.80;99.90;;;;;;5031384;28;20048;-70
2022/05/24 04:54:31;;;;;;;5.85;3.33;;;21.40;99.90;;;;;;5031054;28;20052;-70
2022/05/24 04:57:36;;;;;;;8.07;3.15;;;20.80;99.90;;;;;;5030918;28;20100;-70
2022/05/24 05:00:39;;;;;;;8.48;2.50;;;21.20;99.90;;;;;;5031122;28;20048;-70
2022/05/24 05:03:43;;;;;;;5.40;2.90;;;21.50;99.90;;;;;;5031090;28;20056;-70
2022/05/24 05:06:48;;;;;;;7.57;2.67;;;22.50;99.90;;;;;;5030694;28;20052;-70
2022/05/24 05:09:52;;;;;;;5.18;2.50;;;22.60;99.90;;;;;;5030804;28;20049;-70
2022/05/24 05:12:55;;;;;;;7.28;2.75;;;23.10;99.90;;;;;;5030978;28;20060;-69
2022/05/24 05:16:01;;;;;;;4.45;2.33;;;23.70;99.50;;;;;;5030795;28;20053;-69
2022/05/24 05:19:08;;;;;;;6.25;2.88;;;24.30;98.70;;;;;;5030565;28;20041;-69
2022/05/24 05:22:12;;;;;;;6.53;2.55;;;24.60;98.20;;;;;;5030728;28;20060;-69
2022/05/24 05:25:16;;;;;;;6.75;2.78;;;24.40;98.20;;;;;;5030847;28;20511;-69
2022/05/24 05:28:22;;;;;;;4.93;2.55;;;24.30;97.00;;;;;;5030014;28;20755;-69
2022/05/24 05:31:27;;;;;;;4.85;2.40;;;24.20;97.30;;;;;;5030355;28;20044;-69
2022/05/24 05:34:31;;;;;;;5.53;2.70;;;24.70;97.10;;;;;;5030530;28;20077;-70
2022/05/24 05:37:35;;;;;;;5.90;3.47;;;25.20;96.50;;;;;;5030098;28;20051;-69
2022/05/24 05:40:41;;;;;;;6.55;3.55;;;24.50;95.20;;;;;;5030165;28;20053;-70
2022/05/24 05:43:45;;;;;;;6.38;2.88;;;23.50;95.80;;;;;;5030665;28;20044;-70
2022/05/24 05:46:49;;;;;;;8.00;3.03;;;23.90;95.80;;;;;;5030214;28;20057;-70
2022/05/24 05:49:53;;;;;;;8.32;3.38;;;22.70;96.10;;;;;;5030504;28;20504;-70
2022/05/24 05:52:57;;;;;;;9.32;3.22;;;23.30;96.20;;;;;;5030345;28;20395;-70
2022/05/24 05:56:01;;;;;;;9.48;3.13;;;22.50;96.50;;;;;;5030230;28;20056;-70
2022/05/24 05:59:06;;;;;;;8.02;3.47;;;22.90;96.10;;;;;;5030575;28;20048;-70
2022/05/24 06:02:11;;;;;;;9.77;3.47;;;23.10;96.20;;;;;;5029283;28;20500;-70
2022/05/24 06:05:15;;;;;;;8.27;3.25;;;24.20;95.10;;;;;;5030909;28;20048;-70
2022/05/24 06:08:19;;;;;;;7.18;3.22;;;24.30;94.20;;;;;;5030019;28;20045;-70
2022/05/24 06:11:23;;;;;;;12.75;3.22;;;25.20;93.20;;;;;;5030116;28;20048;-70
2022/05/24 06:14:27;;;;;;;10.00;3.25;;;25.20;93.90;;;;;;5030266;28;20384;-70
2022/05/24 06:17:31;;;;;;;7.15;3.50;;;24.50;93.30;;;;;;5029368;28;20044;-70
2022/05/24 06:20:35;;;;;;;8.30;3.45;;;24.40;94.30;;;;;;5030093;28;20050;-70
2022/05/24 06:23:39;;;;;;;5.18;2.80;;;24.00;94.00;;;;;;5033078;28;20653;-70
2022/05/24 06:26:43;;;;;;;8.50;3.15;;;23.90;94.90;;;;;;5032562;28;20060;-70
2022/05/24 06:29:47;;;;;;;4.88;2.67;;;23.20;95.20;;;;;;5033056;28;20052;-70
2022/05/24 06:32:51;;;;;;;9.77;4.28;;;23.40;95.60;;;;;;5033099;28;20052;-70
2022/05/24 06:35:56;;;;;;;8.48;3.72;;;22.90;95.90;;;;;;5033267;28;20105;-70
2022/05/24 06:38:59;;;;;;;8.15;3.55;;;23.20;96.80;;;;;;5029216;28;20041;-70
2022/05/24 06:42:05;;;;;;;8.45;3.70;;;23.40;95.90;;;;;;5031836;28;20388;-70
2022/05/24 06:45:12;;;;;;;8.23;3.45;;;23.50;95.90;;;;;;5025090;28;20381;-71
2022/05/24 06:48:16;;;;;;;9.18;3.67;;;23.60;96.30;;;;;;5023877;28;20060;-69
2022/05/24 06:51:22;;;;;;;9.25;4.95;;;23.80;96.60;;;;;;5027361;28;20053;-70
2022/05/24 06:54:25;;;;;;;6.85;3.38;;;23.60;97.20;;;;;;5032088;28;20373;-70
2022/05/24 06:57:30;;;;;;;6.10;3.30;;;23.80;96.80;;;;;;5027935;28;20047;-69
2022/05/24 07:03:58;;;;;;;7.15;3.63;;;22.60;97.50;;;;;;5030974;28;20484;-70
2022/05/24 07:07:02;;;;;;;8.13;3.17;;;22.90;97.90;;;;;;5030015;28;20044;-69
2022/05/24 07:10:08;;;;;;;7.75;3.35;;;23.00;98.30;;;;;;5029073;28;20052;-69
2022/05/24 07:13:17;;;;;;;7.18;3.42;;;22.80;98.40;;;;;;5025343;28;20044;-69
2022/05/24 07:16:23;;;;;;;6.30;3.30;;;22.80;99.00;;;;;;5029491;28;20048;-69
2022/05/24 07:19:27;;;;;;;8.05;3.55;;;23.30;97.30;;;;;;5032158;28;20048;-70
2022/05/24 07:22:31;;;;;;;13.40;3.20;;;22.90;98.80;;;;;;5030819;28;20379;-70
2022/05/24 07:25:37;;;;;;;14.60;3.40;;;23.70;97.80;;;;;;5029321;28;20495;-70
2022/05/24 07:28:41;;;;;;;17.00;3.53;;;24.90;96.70;;;;;;5027033;28;20514;-70
2022/05/24 07:31:46;;;;;;;6.93;3.03;;;25.80;95.00;;;;;;5029565;28;20053;-71
2022/05/24 07:34:50;;;;;;;11.02;4.38;;;25.90;94.90;;;;;;5027131;28;20052;-70
2022/05/24 07:37:55;;;;;;;6.32;3.05;;;24.90;95.90;;;;;;5026819;28;20060;-70
2022/05/24 07:47:45;;;;;;;4.95;2.63;;;24.50;95.50;;;;;;5019892;28;20036;-71
2022/05/24 07:50:51;;;;;;;10.98;2.90;;;24.30;96.00;;;;;;5024062;28;20052;-70
2022/05/24 07:53:55;;;;;;;5.63;2.45;;;24.20;96.00;;;;;;5028152;28;20483;-70
2022/05/24 07:57:01;;;;;;;8.80;2.88;;;23.60;96.70;;;;;;5025486;28;20045;-70
2022/05/24 08:00:06;;;;;;;6.78;2.70;;;24.10;96.60;;;;;;5028007;28;20515;-70
2022/05/24 08:03:15;;;;;;;6.82;3.42;;;24.80;97.60;;;;;;5026623;28;20048;-70
2022/05/24 08:06:19;;;;;;;9.63;3.00;;;25.20;96.40;;;;;;5028698;28;20060;-70
2022/05/24 08:09:24;;;;;;;10.90;3.22;;;26.20;95.90;;;;;;5028317;28;20044;-70
2022/05/24 08:12:28;;;;;;;13.30;2.85;;;26.70;94.50;;;;;;5024071;28;20045;-71
2022/05/24 08:15:34;;;;;;;20.10;5.05;;;27.40;95.00;;;;;;5026431;28;20392;-71
2022/05/24 08:18:37;;;;;;;9.85;2.83;;;27.20;93.90;;;;;;5029999;28;20045;-72
2022/05/24 08:21:41;;;;;;;7.90;2.03;;;28.20;93.50;;;;;;5027208;28;20047;-71
2022/05/24 08:24:48;;;;;;;9.60;2.03;;;30.10;91.20;;;;;;5025267;28;20036;-71
2022/05/24 08:27:53;;;;;;;8.38;2.25;;;30.80;90.60;;;;;;5020718;28;20515;-71
2022/05/24 08:30:59;;;;;;;11.40;1.90;;;31.90;88.50;;;;;;5027311;28;20061;-72
2022/05/24 08:34:04;;;;;;;4.32;2.10;;;32.90;85.90;;;;;;5028195;28;20040;-71
2022/05/24 08:37:08;;;;;;;8.80;2.67;;;34.30;84.10;;;;;;5023413;28;20044;-71
2022/05/24 08:40:16;;;;;;;9.30;2.38;;;32.10;84.90;;;;;;5028162;28;20044;-71
2022/05/24 08:43:23;;;;;;;9.50;2.63;;;30.30;86.30;;;;;;5026736;28;20056;-71
2022/05/24 08:49:57;;;;;;;7.88;2.20;;;28.50;91.30;;;;;;5024388;28;20060;-71
2022/05/24 08:53:10;;;;;;;5.75;2.90;;;27.80;91.60;;;;;;5028257;28;20056;-71
2022/05/24 08:56:28;;;;;;;9.85;3.15;;;25.10;94.10;;;;;;5026355;28;20389;-71
2022/05/24 08:59:42;;;;;;;13.73;3.13;;;24.50;95.70;;;;;;5028699;28;20060;-71
2022/05/24 09:02:48;;;;;;;7.85;3.15;;;25.30;96.20;;;;;;5023946;28;20045;-71
2022/05/24 09:06:04;;;;;;;12.48;3.50;;;25.80;95.40;;;;;;5026174;28;20048;-71
2022/05/24 09:09:40;;;;;;;15.73;3.17;;;26.10;95.60;;;;;;5028280;28;20044;-71
2022/05/24 09:13:02;;;;;;;12.25;2.92;;;25.60;95.50;;;;;;5026551;28;20048;-71
2022/05/24 09:16:12;;;;;;;6.72;3.00;;;25.90;96.00;;;;;;5027278;28;20064;-71
2022/05/24 09:19:23;;;;;;;8.13;3.17;;;26.00;95.90;;;;;;5027788;28;20424;-71
2022/05/24 09:22:33;;;;;;;10.85;3.22;;;26.50;95.00;;;;;;5024306;28;20068;-70
2022/05/24 09:25:37;;;;;;;10.73;2.85;;;26.50;95.00;;;;;;5025000;28;20056;-73
2022/05/24 09:28:59;;;;;;;10.88;2.85;;;26.70;95.90;;;;;;5023759;28;20048;-72
2022/05/24 09:32:09;;;;;;;10.70;3.28;;;27.40;94.90;;;;;;5020009;28;20056;-71
2022/05/24 09:35:16;;;;;;;10.00;3.55;;;27.90;94.30;;;;;;5021914;28;20484;-71
2022/05/24 09:38:22;;;;;;;12.48;3.17;;;28.00;93.80;;;;;;5021429;28;20052;-71
2022/05/24 09:41:27;;;;;;;6.32;3.05;;;26.00;94.90;;;;;;5021546;28;20037;-72
2022/05/24 09:45:01;;;;;;;11.80;3.40;;;26.60;95.30;;;;;;5023249;28;20044;-71
2022/05/24 09:48:24;;;;;;;8.65;3.30;;;27.00;94.80;;;;;;5026429;28;20044;-71
2022/05/24 09:51:38;;;;;;;8.43;3.40;;;26.70;95.80;;;;;;5024668;28;20037;-72
2022/05/24 09:54:58;;;;;;;18.63;3.97;;;26.60;96.10;;;;;;5025433;28;20045;-71
2022/05/24 09:58:14;;;;;;;11.38;3.42;;;26.30;95.40;;;;;;5033170;28;20041;-72
2022/05/24 10:01:35;;;;;;;6.78;3.20;;;27.80;94.40;;;;;;5017189;28;20044;-71
2022/05/24 10:04:40;;;;;;;12.07;3.38;;;28.60;93.50;;;;;;5030963;28;20049;-72
2022/05/24 10:08:05;;;;;;;6.32;2.90;;;28.50;94.10;;;;;;5031753;28;20052;-72
2022/05/24 10:11:32;;;;;;;8.70;3.63;;;31.00;92.40;;;;;;5031835;28;20483;-71
2022/05/24 10:14:53;;;;;;;10.60;3.38;;;32.10;91.50;;;;;;5030172;28;20475;-71
2022/05/24 10:18:24;;;;;;;10.00;2.67;;;28.50;93.00;;;;;;5029734;28;20041;-71
2022/05/24 10:21:38;;;;;;;9.15;3.10;;;28.80;93.00;;;;;;5028405;28;20045;-71
2022/05/24 10:25:05;;;;;;;14.38;3.63;;;30.20;91.70;;;;;;5026678;28;20048;-71
2022/05/24 10:28:40;;;;;;;11.25;3.38;;;30.00;91.10;;;;;;5024686;28;20040;-72
2022/05/24 10:31:56;;;;;;;12.10;3.55;;;28.60;92.60;;;;;;5033172;28;20048;-71
2022/05/24 10:38:56;;;;;;;8.05;3.55;;;29.20;92.70;;;;;;5030590;28;20049;-71
2022/05/24 10:42:09;;;;;;;7.22;2.90;;;29.20;92.30;;;;;;5031028;28;20068;-71
2022/05/24 10:45:21;;;;;;;9.45;3.55;;;29.50;92.00;;;;;;5032120;28;20044;-71
2022/05/24 10:48:58;;;;;;;11.25;3.20;;;29.90;92.40;;;;;;5030104;28;20045;-71
2022/05/24 10:52:08;;;;;;;9.02;3.25;;;28.80;92.20;;;;;;5024549;28;20052;-71
2022/05/24 10:55:21;;;;;;;12.98;3.20;;;29.70;92.40;;;;;;5020049;28;20040;-72
2022/05/24 10:58:26;;;;;;;7.63;3.13;;;30.90;91.20;;;;;;5031336;28;20052;-72
2022/05/24 11:01:37;;;;;;;9.55;3.15;;;29.20;92.30;;;;;;5022248;28;20049;-71
2022/05/24 11:04:50;;;;;;;10.57;3.40;;;28.30;92.90;;;;;;5029055;28;20048;-71
2022/05/24 11:08:16;;;;;;;11.98;3.90;;;28.20;93.30;;;;;;5028050;28;20052;-71
2022/05/24 11:11:39;;;;;;;10.13;3.60;;;28.50;92.90;;;;;;5024304;28;20052;-71
2022/05/24 11:14:48;;;;;;;10.50;3.17;;;29.40;92.00;;;;;;5028084;28;20406;-72
2022/05/24 11:17:52;;;;;;;7.65;3.15;;;29.80;91.60;;;;;;5028716;28;20048;-72
2022/05/24 11:21:12;;;;;;;10.75;3.15;;;30.00;91.50;;;;;;5030656;28;20036;-72
2022/05/24 11:24:48;;;;;;;10.27;3.22;;;30.30;90.80;;;;;;5021741;28;20416;-71
2022/05/24 11:28:08;;;;;;;8.00;3.00;;;31.40;90.50;;;;;;5027004;28;20040;-73
2022/05/24 11:31:37;;;;;;;11.02;2.80;;;30.60;90.90;;;;;;5026628;28;20036;-73
2022/05/24 11:35:02;;;;;;;10.70;3.10;;;31.90;90.30;;;;;;5040914;28;20044;-72
2022/05/24 11:38:20;;;;;;;6.40;2.67;;;33.70;87.90;;;;;;5030812;28;20526;-72
2022/05/24 11:41:31;;;;;;;10.25;2.72;;;32.00;87.00;;;;;;5029710;28;20037;-72
2022/05/24 11:44:37;;;;;;;13.25;3.08;;;32.60;86.60;;;;;;5023893;28;20040;-72
2022/05/24 11:47:41;;;;;;;10.50;2.92;;;31.50;88.30;;;;;;5023760;28;20052;-72
2022/05/24 11:50:53;;;;;;;9.88;3.00;;;31.50;89.00;;;;;;5020501;28;20048;-72
2022/05/24 11:54:00;;;;;;;8.38;2.67;;;31.30;90.20;;;;;;5028868;28;20396;-72
2022/05/24 11:57:06;;;;;;;11.32;3.17;;;31.30;89.10;;;;;;5028216;28;20040;-73
2022/05/24 12:00:12;;;;;;;10.85;2.90;;;31.50;89.70;;;;;;5029915;28;20393;-74
2022/05/24 12:10:46;;;;;;;10.15;2.88;;;30.50;91.00;;;;;;5028234;28;20052;-72
2022/05/24 12:13:57;;;;;;;9.52;3.13;;;31.70;89.60;;;;;;5025440;28;20044;-73
2022/05/24 12:17:01;;;;;;;8.70;2.90;;;32.60;88.00;;;;;;5027999;28;20546;-71
2022/05/24 12:20:25;;;;;;;12.93;3.22;;;31.90;89.00;;;;;;5030031;28;20053;-72
2022/05/24 12:23:36;;;;;;;7.15;3.10;;;30.40;91.50;;;;;;5027115;28;20045;-72
2022/05/24 12:27:06;;;;;;;11.63;3.22;;;29.90;92.30;;;;;;5023606;28;20064;-72
2022/05/24 12:30:19;;;;;;;11.00;3.17;;;30.30;91.20;;;;;;5021442;28;20048;-72
2022/05/24 12:33:28;;;;;;;9.43;3.38;;;28.80;92.30;;;;;;5033681;28;20044;-71
2022/05/24 12:36:39;;;;;;;9.73;3.38;;;28.90;92.60;;;;;;5020824;28;20224;-72
2022/05/24 12:40:09;;;;;;;12.10;3.97;;;30.40;91.80;;;;;;5022733;28;20044;-72
2022/05/24 12:43:17;;;;;;;11.15;3.63;;;30.20;92.10;;;;;;5030240;28;20139;-72
2022/05/24 12:46:21;;;;;;;12.63;3.40;;;30.90;91.10;;;;;;5024109;28;20056;-72
2022/05/24 12:49:30;;;;;;;13.43;3.30;;;31.60;90.70;;;;;;5025137;28;20574;-72
2022/05/24 12:52:41;;;;;;;14.05;3.67;;;31.20;90.60;;;;;;5025893;28;20045;-72
2022/05/24 12:55:56;;;;;;;7.35;3.10;;;30.20;91.30;;;;;;5027880;28;20048;-72
2022/05/24 12:59:10;;;;;;;11.18;3.85;;;30.00;92.60;;;;;;5026664;28;20043;-72
2022/05/24 13:02:21;;;;;;;13.07;4.15;;;30.00;92.20;;;;;;5024646;28;20052;-72
2022/05/24 13:05:29;;;;;;;10.70;3.47;;;29.50;92.00;;;;;;5026378;28;20503;-72
2022/05/24 13:08:33;;;;;;;10.18;3.47;;;28.80;93.70;;;;;;5024361;28;20396;-73
2022/05/24 13:11:38;;;;;;;10.70;3.03;;;29.40;93.10;;;;;;5013845;28;20064;-72
2022/05/24 13:14:58;;;;;;;9.07;3.63;;;30.20;91.70;;;;;;5027437;28;20392;-71
2022/05/24 13:18:27;;;;;;;9.35;3.30;;;29.30;91.90;;;;;;5027015;28;20044;-71
2022/05/24 13:21:32;;;;;;;11.88;4.47;;;28.90;93.10;;;;;;5024823;28;20052;-70
2022/05/24 13:24:58;;;;;;;12.90;4.13;;;28.60;93.20;;;;;;5025760;28;20048;-72
2022/05/24 13:28:04;;;;;;;14.55;4.03;;;29.20;93.10;;;;;;5029603;28;20052;-71
2022/05/24 13:34:43;;;;;;;19.30;3.60;;;28.10;94.20;;;;;;5025777;28;20041;-71
2022/05/24 13:37:54;;;;;;;13.02;3.97;;;28.10;94.80;;;;;;5018558;28;20044;-70
2022/05/24 13:40:58;;;;;;;;;;;28.80;93.80;;;;;;5028418;28;20033;-71
2022/05/24 13:44:26;;;;;;;14.18;3.92;;;28.80;94.30;;;;;;5028608;28;19935;-71
2022/05/24 13:47:39;;;;;;;12.23;4.10;;;28.90;93.90;;;;;;5019651;28;20239;-70
2022/05/24 13:50:42;;;;;;;14.30;4.50;;;28.70;93.50;;;;;;5023701;28;20055;-71
2022/05/24 13:53:49;;;;;;;12.43;3.45;;;28.20;94.60;;;;;;5028573;28;20041;-72
2022/05/24 13:56:54;;;;;;;10.23;4.18;;;28.60;93.80;;;;;;5026416;28;20049;-72
2022/05/24 14:00:14;;;;;;;9.45;3.40;;;27.90;94.10;;;;;;5027884;28;20041;-72
2022/05/24 14:03:21;;;;;;;11.80;3.90;;;28.40;95.30;;;;;;5026939;28;20041;-72
2022/05/24 14:06:27;;;;;;;17.10;3.97;;;27.60;94.20;;;;;;5020555;28;20048;-72
2022/05/24 14:09:33;;;;;;;12.73;4.00;;;28.30;94.80;;;;;;5022511;28;20385;-72
2022/05/24 14:12:37;;;;;;;13.93;4.32;;;27.90;94.70;;;;;;5027484;28;20404;-72
2022/05/24 14:15:41;;;;;;;15.57;4.00;;;27.70;94.30;;;;;;5024384;28;20068;-73
2022/05/24 14:18:46;;;;;;;11.77;3.88;;;27.40;95.20;;;;;;5024689;28;20419;-73
2022/05/24 14:21:54;;;;;;;13.50;4.95;;;27.60;96.20;;;;;;5029773;28;20048;-72
2022/05/24 14:24:58;;;;;;;10.35;3.90;;;27.80;95.10;;;;;;5027708;28;20044;-72
2022/05/24 14:28:04;;;;;;;11.68;4.50;;;28.50;94.50;;;;;;5025837;28;20048;-72
2022/05/24 14:31:12;;;;;;;16.50;4.90;;;29.00;93.80;;;;;;5020121;28;20056;-71
2022/05/24 14:34:18;;;;;;;15.75;4.45;;;29.30;94.30;;;;;;5025400;28;20124;-72
2022/05/24 14:37:22;;;;;;;20.90;4.78;;;29.30;94.20;;;;;;5018561;28;20052;-72
2022/05/24 14:40:27;;;;;;;13.90;4.00;;;29.60;93.60;;;;;;5023764;28;20045;-72
2022/05/24 14:43:31;;;;;;;10.43;4.32;;;29.60;93.00;;;;;;5029280;28;20064;-71
2022/05/24 14:46:38;;;;;;;8.10;3.67;;;29.00;93.90;;;;;;5030543;28;20048;-71
2022/05/24 14:49:43;;;;;;;11.25;4.00;;;29.10;94.00;;;;;;5030381;28;20041;-71
2022/05/24 14:52:47;;;;;;;12.75;4.13;;;29.10;94.40;;;;;;5022304;28;20048;-71
2022/05/24 14:55:51;;;;;;;12.57;4.07;;;29.10;94.30;;;;;;5029432;28;20049;-71
2022/05/24 14:58:55;;;;;;;14.10;4.25;;;28.50;94.80;;;;;;5031182;28;20052;-71
2022/05/24 15:01:59;;;;;;;14.70;3.88;;;28.50;95.30;;;;;;5031061;28;20064;-71
2022/05/24 15:05:03;;;;;;;10.43;4.18;;;28.70;95.00;;;;;;5030541;28;20053;-70
2022/05/24 15:18:19;;;;;;;13.18;3.97;;;28.20;95.40;;;;;;5023853;28;20044;-71
2022/05/24 15:21:31;;;;;;;15.20;3.97;;;28.20;95.70;;;;;;5031678;28;20369;-71
2022/05/24 15:24:38;;;;;;;13.27;4.50;;;28.20;95.20;;;;;;5029017;28;20044;-71
2022/05/24 15:27:42;;;;;;;23.23;5.05;;;27.80;95.60;;;;;;5030108;28;20287;-71
2022/05/24 15:30:46;;;;;;;11.52;4.50;;;26.80;96.70;;;;;;5031835;28;20054;-71
2022/05/24 15:33:51;;;;;;;18.60;4.90;;;26.90;97.50;;;;;;5031861;28;20056;-71
2022/05/24 15:36:55;;;;;;;13.85;4.35;;;26.90;96.60;;;;;;5030893;28;20052;-71
2022/05/24 15:39:59;;;;;;;16.17;4.28;;;27.10;96.50;;;;;;5030964;28;20113;-71
2022/05/24 15:43:04;;;;;;;19.48;4.50;;;27.20;97.20;;;;;;5030930;28;20116;-72
2022/05/24 15:46:09;;;;;;;14.27;4.38;;;27.20;97.00;;;;;;5029760;28;20053;-71
2022/05/24 15:49:15;;;;;;;17.80;5.05;;;27.00;97.40;;;;;;5030652;28;20048;-71
2022/05/24 15:52:19;;;;;;;13.15;4.43;;;26.80;97.40;;;;;;5031903;28;20044;-71
2022/05/24 15:55:26;;;;;;;16.17;4.63;;;26.90;96.80;;;;;;5010616;28;20052;-71
2022/05/24 15:58:31;;;;;;;12.80;4.35;;;26.70;97.20;;;;;;5027609;28;20164;-71
2022/05/24 16:01:35;;;;;;;22.30;5.18;;;26.50;97.80;;;;;;5031302;28;20049;-71
2022/05/24 16:11:25;;;;;;;17.15;4.75;;;26.50;98.30;;;;;;5030442;28;20049;-71
2022/05/24 16:14:37;;;;;;;13.25;4.53;;;26.40;98.30;;;;;;5031031;28;20527;-73
2022/05/24 16:17:43;;;;;;;25.20;5.93;;;26.20;98.10;;;;;;5030180;28;20044;-71
2022/05/24 16:20:48;;;;;;;10.18;4.82;;;26.30;98.70;;;;;;5030060;28;20384;-71
2022/05/24 16:23:57;;;;;;;14.98;4.65;;;26.20;98.80;;;;;;5030319;28;20044;-71
2022/05/24 16:27:03;;;;;;;16.00;4.97;;;26.20;98.90;;;;;;5030232;28;20060;-71
2022/05/24 16:30:08;;;;;;;17.25;4.78;;;26.70;98.70;;;;;;5029866;28;20068;-71
2022/05/24 16:33:14;;;;;;;19.38;4.28;;;27.00;98.60;;;;;;5030266;28;20103;-71
2022/05/24 16:36:19;;;;;;;10.65;4.70;;;27.50;97.90;;;;;;5030281;28;20384;-71
2022/05/24 16:39:25;;;;;;;15.95;4.45;;;27.50;96.80;;;;;;5029166;28;20502;-71
2022/05/24 16:42:29;;;;;;;11.95;4.70;;;27.30;97.40;;;;;;5029651;28;20056;-71
2022/05/24 16:45:33;;;;;;;13.13;5.30;;;26.90;97.90;;;;;;5030405;28;20380;-71
2022/05/24 16:48:37;;;;;;;22.05;5.20;;;26.50;98.60;;;;;;5030005;28;20040;-71
2022/05/24 16:51:49;;;;;;;19.40;4.45;;;26.40;98.80;;;;;;5029264;28;20495;-71
2022/05/24 17:01:41;;;;;;;12.65;4.80;;;26.50;99.50;;;;;;5029034;28;20049;-71
2022/05/24 17:04:45;;;;;;;14.70;4.80;;;26.30;99.70;;;;;;5029285;28;20511;-71
2022/05/24 17:07:50;;;;;;;15.82;5.70;;;26.10;99.60;;;;;;5029718;28;20040;-71
2022/05/24 17:10:54;;;;;;;14.55;4.47;;;26.20;99.90;;;;;;5028729;28;20052;-71
2022/05/24 17:13:58;;;;;;;16.45;5.43;;;26.20;99.90;;;;;;5029434;28;20052;-71
2022/05/24 17:17:03;;;;;;;19.77;5.45;;;26.20;99.90;;;;;;5029625;28;20056;-71
2022/05/24 17:20:09;;;;;;;15.90;5.20;;;26.20;99.90;;;;;;5027604;28;20376;-71
2022/05/24 17:23:14;;;;;;;18.05;4.82;;;26.10;99.90;;;;;;5028668;28;20495;-71
2022/05/24 17:26:17;;;;;;;17.50;4.85;;;26.00;99.90;;;;;;5029713;28;20389;-71
2022/05/24 17:29:21;;;;;;;19.45;5.35;;;26.00;99.90;;;;;;5029561;28;20499;-71